Rex, Georgia
Current Conditions -  °F | °C
As of 11:52 AM on Saturday 25 Oct 2014 (Local Time) from KATL Reporting Station
Clear Clear  
Wind Chill: 68°   Ceiling: Unl
Heat Index: 68°   Visibility: 10mi
Dew Point: 44°   Wind: 6mph
Humidity: 42%   Direction: 340°NNW
Pressure: 30.08"   Gusts: NA
Location:  33.59°N, 84.27°W
Report Text: KATL 251552Z 34005KT 10SM CLR 20/07 A3008 RMK AO2 SLP183 T02000067 $
Loading
Personal Weather Stations






























Interactive Weather Map
Tropical Storm Tracking
New forecast layout! Learn more

10-Day Weather Forecast

Advertisements
Track Severe Weather on mobile